Latest Weather Observations for Birdsville

IDQ60801

Issued at 8:02 am EST Thursday 19 October 2017 (issued every 30 minutes, with the page automatically refreshed every 10 minutes)

About weather observations | Map of weather stations | Latest weather observations for QLD | Other Formats
Station Details ID: 038026 Name: BIRDSVILLE AIRPORT Lat: -25.90 Lon: 139.35 Height: 46.6 m
Data from the previous 72 hours. | See also: Recent months at Birdsville
Date/Time
EST
Temp
°C
App
Temp
°C
Dew
Point
°C
Rel
Hum
%
Delta-T
°C
Wind Press
QNH
hPa
Press
MSL
hPa
Rain since
9am
mm
Dir  Spd
km/h
Gust
km/h
Spd
kts
Gust
kts
19/08:00am 29.9 27.6 17.7 48 7.8 NE 26 32 14 17 1015.0 1014.8 0.0
19/07:30am 28.9 27.5 17.1 49 7.4 ENE 20 26 11 14 1014.8 1014.6 0.0
19/07:00am 27.5 26.8 15.5 48 7.3 ENE 13 17 7 9 1014.4 1014.2 0.0
19/06:30am 26.5 25.9 14.6 48 7.1 ENE 11 15 6 8 1014.0 1013.8 0.0
19/06:00am 25.8 25.1 14.3 49 6.9 ESE 11 13 6 7 1013.4 1013.2 0.0
19/05:30am 25.9 25.3 13.4 46 7.3 ESE 9 11 5 6 1012.9 1012.7 0.0
19/05:00am 24.7 23.8 11.3 43 7.6 ESE 7 9 4 5 1012.5 1012.3 0.0
19/04:30am 25.4 24.9 12.6 45 7.4 ESE 7 9 4 5 1012.1 1011.9 0.0
19/04:00am 24.4 23.5 11.4 44 7.3 ESE 7 9 4 5 1012.0 1011.8 0.0
19/03:30am 24.5 23.4 10.8 42 7.7 ESE 7 9 4 5 1011.8 1011.6 0.0
19/03:00am 25.0 24.1 11.2 42 7.8 ESE 7 9 4 5 1011.7 1011.5 0.0
19/02:30am 25.7 24.8 11.5 41 8.1 ESE 7 7 4 4 1011.8 1011.6 0.0
19/02:00am 26.0 24.8 11.7 41 8.2 ESE 9 11 5 6 1011.9 1011.7 0.0
19/01:30am 26.5 25.2 11.4 39 8.6 ESE 9 11 5 6 1012.2 1012.0 0.0
19/01:00am 26.9 25.8 11.8 39 8.7 ESE 9 11 5 6 1012.4 1012.2 0.0
19/12:30am 27.2 25.5 11.3 37 9.1 ESE 11 13 6 7 1012.6 1012.4 0.0
19/12:00am 27.8 26.3 11.8 37 9.2 ESE 11 13 6 7 1012.9 1012.7 0.0
 
Date/Time
EST
Temp
°C
App
Temp
°C
Dew
Point
°C
Rel
Hum
%
Delta-T
°C
Wind Press
QNH
hPa
Press
MSL
hPa
Rain since
9am
mm
Dir  Spd
km/h
Gust
km/h
Spd
kts
Gust
kts
18/11:30pm 28.5 26.5 11.6 35 9.8 ESE 13 15 7 8 1013.1 1012.9 0.0
18/11:00pm 28.3 26.9 10.9 34 9.9 ESE 9 11 5 6 1013.2 1013.0 0.0
18/10:30pm 28.9 27.7 11.5 34 10.0 ESE 9 11 5 6 1013.0 1012.8 0.0
18/10:00pm 29.4 28.4 11.0 32 10.6 ESE 7 9 4 5 1013.0 1012.8 0.0
18/09:30pm 29.8 28.5 11.3 32 10.7 ESE 9 11 5 6 1012.6 1012.4 0.0
18/09:00pm 30.5 29.6 11.5 31 11.0 ESE 7 9 4 5 1012.4 1012.2 0.0
18/08:30pm 31.6 30.3 11.4 29 11.8 ESE 9 11 5 6 1011.9 1011.7 0.0
18/08:00pm 32.3 31.2 12.0 29 12.0 ESE 9 11 5 6 1011.5 1011.3 0.0
18/07:30pm 32.9 31.4 12.0 28 12.4 ESE 11 15 6 8 1011.1 1010.9 0.0
18/07:00pm 33.4 31.3 12.4 28 12.5 ESE 15 22 8 12 1010.7 1010.5 0.0
18/06:30pm 34.0 33.0 12.4 27 12.9 E 9 13 5 7 1010.4 1010.2 0.0
18/06:00pm 34.2 32.7 12.0 26 13.2 ESE 11 15 6 8 1010.2 1010.0 0.0
18/05:30pm 34.8 32.4 12.5 26 13.4 SE 17 24 9 13 1009.8 1009.6 0.0
18/05:00pm 34.9 34.0 12.5 25 13.5 ESE 9 15 5 8 1009.6 1009.4 0.0
18/04:30pm 34.1 32.8 12.4 26 13.0 ESE 11 19 6 10 1009.7 1009.5 0.0
18/04:00pm 35.0 34.5 12.6 26 13.5 E 7 15 4 8 1009.7 1009.5 0.0
18/03:30pm 35.6 33.9 12.5 24 13.9 E 13 22 7 12 1009.8 1009.6 0.0
18/03:00pm 34.0 33.2 12.9 28 12.7 ENE 9 17 5 9 1010.1 1009.9 0.0
18/02:30pm 33.7 31.5 13.2 29 12.4 ESE 17 24 9 13 1010.5 1010.3 0.0
18/02:00pm 33.7 31.5 13.2 29 12.4 ENE 17 24 9 13 1011.1 1010.9 0.0
18/01:30pm 32.9 31.9 13.5 30 11.7 NNW 11 20 6 11 1011.6 1011.4 0.0
18/01:00pm 32.6 32.5 13.8 32 11.4 NE 7 13 4 7 1011.9 1011.7 0.0
18/12:30pm 32.4 31.6 14.1 33 11.2 N 11 24 6 13 1012.3 1012.1 0.0
18/12:00pm 31.7 30.6 14.4 35 10.6 NNE 13 26 7 14 1012.8 1012.6 0.0
18/11:30am 30.8 29.0 14.4 36 10.0 NE 17 32 9 17 1013.2 1013.0 0.0
18/11:00am 30.6 28.5 15.1 39 9.5 NE 20 30 11 16 1013.5 1013.3 0.0
18/10:30am 29.7 27.7 15.0 40 9.0 ENE 19 33 10 18 1013.8 1013.6 0.0
18/10:00am 29.4 27.0 15.5 43 8.6 NE 22 32 12 17 1014.2 1014.0 0.0
18/09:30am 27.9 24.4 15.5 46 7.6 ENE 28 35 15 19 1014.3 1014.1 0.0
18/09:00am 27.3 24.6 15.7 49 7.1 ENE 24 33 13 18 1014.5 1014.3 0.0
18/08:30am 26.1 23.2 15.2 51 6.6 ENE 24 33 13 18 1014.4 1014.2 0.0
18/08:00am 25.3 22.0 15.0 53 6.2 ENE 26 32 14 17 1014.2 1014.0 0.0
18/07:30am 24.5 21.5 14.9 55 5.7 E 24 32 13 17 1014.0 1013.8 0.0
18/07:00am 24.0 21.9 14.7 56 5.5 E 19 26 10 14 1013.8 1013.6 0.0
18/06:30am 23.5 22.1 14.5 57 5.3 E 15 20 8 11 1013.4 1013.2 0.0
18/06:00am 23.6 21.9 14.6 57 5.3 E 17 22 9 12 1013.0 1012.8 0.0
18/05:30am 23.9 21.6 14.6 56 5.5 E 20 26 11 14 1012.6 1012.4 0.0
18/05:00am 24.2 21.9 14.6 55 5.7 E 20 24 11 13 1012.4 1012.2 0.0
18/04:30am 24.5 23.1 14.6 54 5.9 E 15 20 8 11 1012.2 1012.0 0.0
18/04:00am 25.0 22.9 14.8 53 6.1 E 19 28 10 15 1012.0 1011.8 0.0
18/03:30am 25.2 23.1 14.6 51 6.3 E 19 26 10 14 1011.7 1011.5 0.0
18/03:00am 25.7 22.9 14.2 49 6.8 E 22 32 12 17 1011.7 1011.5 0.0
18/02:30am 26.2 23.2 13.7 46 7.4 E 22 30 12 16 1011.8 1011.6 0.0
18/02:00am 26.7 24.1 13.8 45 7.7 E 20 28 11 15 1012.1 1011.9 0.0
18/01:30am 27.1 24.5 13.8 44 7.9 E 20 30 11 16 1012.3 1012.1 0.0
18/01:00am 27.6 24.5 13.5 41 8.4 E 22 28 12 15 1012.5 1012.3 0.0
18/12:30am 28.0 24.8 13.1 39 8.8 E 22 32 12 17 1012.6 1012.4 0.0
18/12:00am 28.5 24.8 12.8 38 9.2 E 24 30 13 16 1012.6 1012.4 0.0
 
Date/Time
EST
Temp
°C
App
Temp
°C
Dew
Point
°C
Rel
Hum
%
Delta-T
°C
Wind Press
QNH
hPa
Press
MSL
hPa
Rain since
9am
mm
Dir  Spd
km/h
Gust
km/h
Spd
kts
Gust
kts
17/11:30pm 29.1 25.6 12.1 35 9.9 E 22 30 12 16 1012.4 1012.2 0.0
17/11:00pm 28.6 26.4 12.1 36 9.6 ESE 15 22 8 12 1012.3 1012.1 0.0
17/10:30pm 28.3 26.7 11.4 35 9.7 ESE 11 13 6 7 1012.4 1012.2 0.0
17/10:00pm 28.5 26.5 11.6 35 9.8 SE 13 20 7 11 1012.2 1012.0 0.0
17/09:30pm 28.3 26.5 10.9 34 9.9 SSE 11 13 6 7 1011.9 1011.7 0.0
17/09:00pm 28.6 27.3 11.2 34 10.0 SSE 9 9 5 5 1011.5 1011.3 0.0
17/08:30pm 29.0 27.7 11.1 33 10.3 SE 9 11 5 6 1011.3 1011.1 0.0
17/08:00pm 30.0 28.6 11.0 31 10.9 SE 9 11 5 6 1010.8 1010.6 0.0
17/07:30pm 30.9 28.8 11.3 30 11.4 ESE 13 17 7 9 1010.4 1010.2 0.0
17/07:00pm 31.3 28.6 11.7 30 11.5 ESE 17 20 9 11 1010.0 1009.8 0.0
17/06:30pm 31.9 29.6 11.7 29 11.9 ESE 15 20 8 11 1009.7 1009.5 0.0
17/06:00pm 32.4 29.3 11.6 28 12.2 ESE 19 30 10 16 1009.3 1009.1 0.0
17/05:30pm 32.1 30.0 11.3 28 12.1 SE 13 20 7 11 1009.3 1009.1 0.0
17/05:00pm 32.9 30.0 10.9 26 12.8 E 17 26 9 14 1009.3 1009.1 0.0
17/04:30pm 32.8 30.0 11.3 27 12.6 E 17 26 9 14 1009.1 1008.9 0.0
17/04:00pm 32.5 30.9 11.6 28 12.3 ENE 11 19 6 10 1009.3 1009.1 0.0
17/03:30pm 32.3 30.5 12.0 29 12.0 ENE 13 30 7 16 1009.5 1009.3 0.0
17/03:00pm 32.0 29.9 12.3 30 11.7 E 15 24 8 13 1009.8 1009.6 0.0
17/02:30pm 31.4 30.0 12.2 30 11.3 ENE 11 19 6 10 1010.4 1010.2 0.0
17/02:00pm 30.7 28.5 12.1 32 10.9 ESE 15 26 8 14 1010.8 1010.6 0.0
17/01:30pm 30.9 28.5 12.8 33 10.8 SE 17 20 9 11 1011.2 1011.0 0.0
17/01:00pm 30.7 28.7 12.6 33 10.7 ESE 15 20 8 11 1011.8 1011.6 0.0
17/12:30pm 30.4 28.9 13.2 35 10.3 ESE 13 24 7 13 1012.3 1012.1 0.0
17/12:00pm 30.1 28.1 13.8 37 9.8 ENE 17 24 9 13 1012.7 1012.5 0.0
17/11:30am 29.8 28.6 14.0 38 9.5 E 13 22 7 12 1013.1 1012.9 0.0
17/11:00am 29.1 27.3 14.5 41 8.8 E 17 26 9 14 1013.6 1013.4 0.0
17/10:30am 28.3 26.1 14.5 43 8.3 E 19 28 10 15 1014.0 1013.8 0.0
17/10:00am 27.1 24.5 14.8 47 7.4 ENE 22 32 12 17 1014.4 1014.2 0.0
17/09:30am 26.2 23.1 14.6 48 7.0 E 24 30 13 16 1014.4 1014.2 0.0
17/09:00am 25.3 21.8 14.4 50 6.5 ENE 26 33 14 18 1014.3 1014.1 0.0
17/08:30am 25.1 22.0 14.6 52 6.3 E 24 33 13 18 1014.3 1014.1 0.0
17/08:00am 23.8 20.5 13.9 54 5.8 E 24 35 13 19 1014.0 1013.8 0.0
17/07:30am 23.1 19.4 13.8 55 5.4 E 26 35 14 19 1013.9 1013.7 0.0
17/07:00am 22.5 20.0 13.6 57 5.2 ESE 19 28 10 15 1013.7 1013.5 0.0
17/06:30am 22.0 19.4 13.1 57 5.1 ESE 19 24 10 13 1013.2 1013.0 0.0
17/06:00am 22.0 19.3 12.8 56 5.3 ESE 19 24 10 13 1013.1 1012.9 0.0
17/05:30am 22.4 19.5 12.4 53 5.7 ESE 19 22 10 12 1012.9 1012.7 0.0
17/05:00am 22.7 20.1 12.0 50 6.1 ESE 17 20 9 11 1012.7 1012.5 0.0
17/04:30am 23.0 20.4 12.0 50 6.2 ESE 17 22 9 12 1012.5 1012.3 0.0
17/04:00am 23.4 20.8 12.1 49 6.4 E 17 20 9 11 1012.0 1011.8 0.0
17/03:30am 23.6 21.0 12.0 48 6.6 E 17 22 9 12 1012.0 1011.8 0.0
17/03:00am 23.9 21.6 11.9 47 6.8 ESE 15 19 8 10 1012.2 1012.0 0.0
17/02:30am 24.5 21.5 12.1 46 7.1 E 19 24 10 13 1012.1 1011.9 0.0
17/02:00am 24.8 21.8 12.1 45 7.3 E 19 22 10 12 1012.4 1012.2 0.0
17/01:30am 25.3 21.8 12.2 44 7.5 E 22 30 12 16 1012.7 1012.5 0.0
17/01:00am 25.8 21.6 12.3 43 7.8 E 26 35 14 19 1012.9 1012.7 0.0
17/12:30am 26.1 22.2 12.2 42 8.0 ESE 24 33 13 18 1013.1 1012.9 0.0
17/12:00am 26.5 22.4 11.4 39 8.6 ESE 24 32 13 17 1013.2 1013.0 0.0
 
Date/Time
EST
Temp
°C
App
Temp
°C
Dew
Point
°C
Rel
Hum
%
Delta-T
°C
Wind Press
QNH
hPa
Press
MSL
hPa
Rain since
9am
mm
Dir  Spd
km/h
Gust
km/h
Spd
kts
Gust
kts
16/11:30pm 26.9 22.9 10.6 36 9.2 ESE 22 30 12 16 1013.2 1013.0 0.0
16/11:00pm 27.1 23.4 10.3 35 9.4 ESE 20 24 11 13 1013.1 1012.9 0.0
16/10:30pm 27.6 23.9 10.3 34 9.7 ESE 20 28 11 15 1012.9 1012.7 0.0
16/10:00pm 27.9 24.2 10.1 33 10.0 ESE 20 26 11 14 1012.6 1012.4 0.0
16/09:30pm 28.0 24.2 9.8 32 10.2 SE 20 26 11 14 1012.3 1012.1 0.0
16/09:00pm 28.4 24.7 9.6 31 10.5 SE 19 20 10 11 1012.0 1011.8 0.0
16/08:30pm 29.0 25.5 10.2 31 10.6 SE 19 24 10 13 1011.6 1011.4 0.0
16/08:00pm 29.4 25.7 9.5 29 11.2 SE 19 24 10 13 1011.3 1011.1 0.0
16/07:30pm 30.0 25.0 9.5 28 11.5 SE 26 35 14 19 1010.9 1010.7 0.0
16/07:00pm 30.8 26.8 9.1 26 12.2 SE 20 30 11 16 1010.5 1010.3 0.0
16/06:30pm 31.4 26.3 7.8 23 13.0 SE 24 32 13 17 1010.2 1010.0 0.0
16/06:00pm 32.1 26.8 7.0 21 13.7 SE 24 33 13 18 1010.1 1009.9 0.0
16/05:30pm 32.8 27.1 6.9 20 14.1 SE 26 35 14 19 1009.9 1009.7 0.0
16/05:00pm 32.7 27.0 6.8 20 14.1 SE 26 37 14 20 1009.7 1009.5 0.0
16/04:30pm 33.8 29.1 7.7 20 14.5 SE 22 41 12 22 1009.6 1009.4 0.0
16/04:00pm 33.2 28.8 7.2 20 14.3 SE 20 32 11 17 1009.8 1009.6 0.0
16/03:30pm 33.6 28.9 7.6 20 14.4 SE 22 37 12 20 1010.0 1009.8 0.0
16/03:00pm 33.6 29.4 7.6 20 14.4 SE 19 35 10 19 1010.2 1010.0 0.0
16/02:30pm 34.3 29.7 8.1 20 14.7 ESE 22 32 12 17 1010.6 1010.4 0.0
16/02:06pm 34.9 30.4 7.1 18 15.4 ESE 20 44 11 24 1010.9 1010.7 0.0
16/02:00pm 33.8 28.7 7.7 20 14.5 ESE 24 39 13 21 1011.0 1010.8 0.0
16/01:30pm 33.0 28.7 7.8 21 14.0 E 20 35 11 19 1011.4 1011.2 0.0
16/01:00pm 32.9 28.7 8.4 22 13.7 ESE 20 30 11 16 1011.9 1011.7 0.0
16/12:30pm 32.9 28.1 9.0 23 13.5 ESE 24 37 13 20 1012.3 1012.1 0.0
16/12:00pm 31.7 26.8 9.8 26 12.5 E 26 35 14 19 1012.8 1012.6 0.0
16/11:30am 30.7 25.8 10.1 28 11.7 E 26 39 14 21 1013.3 1013.1 0.0
16/11:00am 30.7 25.6 10.6 29 11.5 E 28 39 15 21 1013.6 1013.4 0.0
16/10:30am 30.1 25.5 11.1 31 11.0 E 26 39 14 21 1014.1 1013.9 0.0
16/10:00am 28.7 23.7 10.8 33 10.2 E 28 39 15 21 1014.4 1014.2 0.0
16/09:30am 28.4 23.7 11.9 36 9.6 E 28 39 15 21 1014.5 1014.3 0.0
16/09:00am 27.7 22.9 11.7 37 9.2 ENE 28 37 15 20 1014.5 1014.3 0.0
16/08:30am 26.6 21.8 11.5 39 8.6 E 28 37 15 20 1014.4 1014.2 0.0

Other Formats:

Comma delimited format used in spreadsheet applications
http://www.bom.gov.au/fwo/IDQ60801/IDQ60801.95482.axf

JavaScript Object Notation format (JSON) in row-major order
http://www.bom.gov.au/fwo/IDQ60801/IDQ60801.95482.json